createdAt,value
2018-11-22T00:02:19.097Z,48.33
2018-11-22T00:04:50.356Z,57.03
2018-11-22T00:07:18.837Z,48.63
2018-11-22T00:09:50.032Z,55.00
2018-11-22T00:12:21.304Z,47.40
2018-11-22T00:14:49.737Z,58.77
2018-11-22T00:17:18.132Z,55.37
2018-11-22T00:19:49.435Z,51.90
2018-11-22T00:22:18.663Z,61.20
2018-11-22T00:24:50.333Z,54.30
2018-11-22T00:27:21.588Z,55.67
2018-11-22T00:29:53.065Z,53.80
2018-11-22T00:32:24.420Z,55.13
2018-11-22T00:34:56.153Z,55.00
2018-11-22T00:37:24.776Z,52.53
2018-11-22T00:39:56.335Z,59.50
2018-11-22T00:42:27.560Z,50.37
2018-11-22T00:44:56.002Z,62.33
2018-11-22T00:47:24.467Z,62.23
2018-11-22T00:49:52.933Z,55.33
2018-11-22T00:52:24.348Z,56.80
2018-11-22T00:54:55.865Z,66.23
2018-11-22T00:57:27.353Z,55.03
2018-11-22T00:59:59.009Z,58.97
2018-11-22T01:02:27.696Z,56.37
2018-11-22T01:04:56.152Z,56.13
2018-11-22T01:07:27.793Z,57.33
2018-11-22T01:09:59.000Z,57.87
2018-11-22T01:12:27.439Z,56.77
2018-11-22T01:14:58.919Z,61.60
2018-11-22T01:17:30.166Z,60.37
2018-11-22T01:20:01.866Z,61.47
2018-11-22T01:22:33.309Z,65.60
2018-11-22T01:25:01.739Z,53.77
2018-11-22T01:27:30.161Z,62.20
2018-11-22T01:29:58.600Z,64.43
2018-11-22T01:32:27.955Z,61.20
2018-11-22T01:34:56.390Z,56.50
2018-11-22T01:37:25.049Z,58.37
2018-11-22T01:39:57.117Z,60.93
2018-11-22T01:42:28.606Z,69.07
2018-11-22T01:44:59.993Z,63.43
2018-11-22T01:47:31.279Z,70.03
2018-11-22T01:50:02.785Z,61.17
2018-11-22T01:52:34.219Z,65.33
2018-11-22T01:55:06.794Z,57.93
2018-11-22T01:57:38.206Z,57.27
2018-11-22T02:00:16.891Z,51.50
2018-11-22T02:02:45.960Z,54.87
2018-11-22T02:05:21.288Z,58.97
2018-11-22T02:07:52.837Z,66.87
2018-11-22T02:10:22.160Z,62.97
2018-11-22T02:12:53.673Z,65.37
2018-11-22T02:15:23.726Z,61.70
2018-11-22T02:17:52.139Z,64.70
2018-11-22T02:20:24.452Z,64.00
2018-11-22T02:22:53.244Z,53.03
2018-11-22T02:25:23.416Z,63.43
2018-11-22T02:27:54.754Z,62.70
2018-11-22T02:30:24.585Z,61.87
2018-11-22T02:32:54.701Z,56.83
2018-11-22T02:35:23.432Z,56.47
2018-11-22T02:37:51.846Z,65.13
2018-11-22T02:40:21.223Z,63.67
2018-11-22T02:42:50.587Z,70.03
2018-11-22T02:45:20.600Z,70.63
2018-11-22T02:47:49.038Z,67.60
2018-11-22T02:50:21.543Z,57.83
2018-11-22T02:52:50.487Z,66.00
2018-11-22T02:55:18.956Z,57.33
2018-11-22T02:57:49.174Z,59.90
2018-11-22T03:00:44.965Z,65.23
2018-11-22T03:03:17.090Z,67.33
2018-11-22T03:05:48.058Z,65.60
2018-11-22T03:08:19.440Z,67.07
2018-11-22T03:10:50.990Z,66.50
2018-11-22T03:13:20.293Z,54.97
2018-11-22T03:15:51.917Z,68.77
2018-11-22T03:18:20.357Z,72.00
2018-11-22T03:20:51.675Z,75.07
2018-11-22T03:23:23.755Z,64.57
2018-11-22T03:25:54.984Z,62.67
2018-11-22T03:28:26.302Z,70.00
2018-11-22T03:30:57.839Z,62.27
2018-11-22T03:33:29.719Z,63.20
2018-11-22T03:36:00.955Z,62.50
2018-11-22T03:38:32.567Z,65.07
2018-11-22T03:41:04.016Z,69.77
2018-11-22T03:43:32.430Z,65.70
2018-11-22T03:46:03.656Z,59.00
2018-11-22T03:48:36.277Z,60.57
2018-11-22T03:51:07.806Z,68.20
2018-11-22T03:53:36.249Z,68.13
2018-11-22T03:56:04.942Z,64.37
2018-11-22T03:58:33.380Z,72.90
2018-11-22T04:01:04.855Z,60.27
2018-11-22T04:03:36.438Z,66.03
2018-11-22T04:06:08.132Z,59.80
2018-11-22T04:08:36.561Z,64.33
2018-11-22T04:11:07.913Z,68.03
2018-11-22T04:13:39.152Z,70.37
2018-11-22T04:16:10.575Z,65.73
2018-11-22T04:18:38.984Z,62.40
2018-11-22T04:21:10.485Z,70.10
2018-11-22T04:23:38.908Z,73.53
2018-11-22T04:26:07.443Z,63.87
2018-11-22T04:28:35.933Z,66.63
2018-11-22T04:31:04.394Z,66.53
2018-11-22T04:33:32.823Z,72.93
2018-11-22T04:36:02.072Z,63.33
2018-11-22T04:38:30.494Z,71.80
2018-11-22T04:40:58.942Z,62.60
2018-11-22T04:43:27.395Z,68.40
2018-11-22T04:45:58.019Z,64.57
2018-11-22T04:48:26.483Z,63.30
2018-11-22T04:50:54.938Z,69.27
2018-11-22T04:53:23.433Z,63.90
2018-11-22T04:55:54.507Z,61.90
2018-11-22T04:58:25.729Z,64.03
2018-11-22T05:00:54.133Z,66.17
2018-11-22T05:03:26.062Z,65.80
2018-11-22T05:05:57.402Z,60.90
2018-11-22T05:08:28.642Z,70.27
2018-11-22T05:11:00.048Z,70.80
2018-11-22T05:13:31.562Z,67.83
2018-11-22T05:16:03.163Z,58.83
2018-11-22T05:18:31.562Z,73.20
2018-11-22T05:20:59.947Z,59.20
2018-11-22T05:23:31.243Z,66.03
2018-11-22T05:25:59.651Z,58.87
2018-11-22T05:28:28.070Z,67.27
2018-11-22T05:31:00.135Z,64.87
2018-11-22T05:33:28.594Z,75.83
2018-11-22T05:35:56.988Z,64.63
2018-11-22T05:38:28.506Z,57.07
2018-11-22T05:41:00.123Z,60.00
2018-11-22T05:43:28.576Z,64.90
2018-11-22T05:45:59.754Z,62.00
2018-11-22T05:48:31.089Z,65.07
2018-11-22T05:50:59.528Z,55.27
2018-11-22T05:53:28.125Z,62.17
2018-11-22T05:55:56.536Z,68.83
2018-11-22T05:58:28.068Z,57.73
2018-11-22T06:00:56.469Z,64.00
2018-11-22T06:03:27.762Z,70.37
2018-11-22T06:05:56.160Z,56.93
2018-11-22T06:08:27.631Z,71.43
2018-11-22T06:10:56.291Z,62.93
2018-11-22T06:13:24.700Z,54.83
2018-11-22T06:15:53.157Z,58.97
2018-11-22T06:18:21.635Z,62.90
2018-11-22T06:20:50.120Z,57.93
2018-11-22T06:23:18.513Z,60.73
2018-11-22T06:25:49.571Z,59.30
2018-11-22T06:28:21.048Z,68.23
2018-11-22T06:30:49.562Z,57.17
2018-11-22T06:33:18.109Z,65.67
2018-11-22T06:35:49.204Z,58.43
2018-11-22T06:38:20.134Z,65.73
2018-11-22T06:40:51.417Z,57.53
2018-11-22T06:43:19.821Z,68.30
2018-11-22T06:45:48.224Z,68.53
2018-11-22T06:48:19.635Z,56.23
2018-11-22T06:50:50.855Z,55.03
2018-11-22T06:53:19.269Z,55.87
2018-11-22T06:55:51.628Z,57.83
2018-11-22T06:58:19.266Z,53.63
2018-11-22T07:00:47.904Z,54.87
2018-11-22T07:03:18.659Z,54.47
2018-11-22T07:05:50.187Z,57.83
2018-11-22T07:08:18.779Z,61.97
2018-11-22T07:10:50.023Z,56.80
2018-11-22T07:13:21.760Z,51.40
2018-11-22T07:15:53.338Z,50.83
2018-11-22T07:18:21.769Z,58.37
2018-11-22T07:20:53.203Z,49.30
2018-11-22T07:23:24.226Z,52.30
2018-11-22T07:25:52.795Z,67.93
2018-11-22T07:28:24.145Z,58.30
2018-11-22T07:30:55.828Z,53.20
2018-11-22T07:33:24.276Z,54.73
2018-11-22T07:35:52.687Z,56.00
2018-11-22T07:38:24.296Z,51.77
2018-11-22T07:40:55.763Z,43.07
2018-11-22T07:43:26.968Z,60.37
2018-11-22T07:45:55.404Z,48.40
2018-11-22T07:48:26.688Z,59.10
2018-11-22T07:50:59.033Z,47.13
2018-11-22T07:53:30.341Z,44.20
2018-11-22T07:56:02.336Z,52.10
2018-11-22T07:58:33.894Z,49.60
2018-11-22T08:01:05.870Z,55.10
2018-11-22T08:03:38.209Z,50.80
2018-11-22T08:06:09.630Z,54.07
2018-11-22T08:08:41.164Z,58.73
2018-11-22T08:11:09.979Z,55.10
2018-11-22T12:17:07.967Z,61.33
2018-11-22T12:19:36.545Z,53.63
2018-11-22T12:22:05.185Z,53.63
2018-11-22T12:24:34.514Z,62.50
2018-11-22T12:27:03.102Z,63.70
2018-11-22T12:29:31.666Z,55.33
2018-11-22T12:32:05.504Z,56.40
2018-11-22T12:34:39.402Z,55.93
2018-11-22T12:37:10.435Z,57.70
2018-11-22T12:39:39.341Z,55.90
2018-11-22T12:42:08.910Z,62.33
2018-11-22T12:44:37.453Z,62.77
2018-11-22T12:47:06.147Z,60.83
2018-11-22T12:49:34.691Z,58.97
2018-11-22T12:52:04.237Z,60.47
2018-11-22T12:54:33.719Z,64.67
2018-11-22T12:57:03.208Z,58.80
2018-11-22T12:59:31.739Z,60.23
2018-11-22T13:02:01.332Z,61.47
2018-11-22T13:04:30.789Z,58.80
2018-11-22T13:07:00.350Z,52.47
2018-11-22T13:09:29.816Z,71.57
2018-11-22T13:11:59.285Z,63.90
2018-11-22T13:14:28.652Z,58.37
2018-11-22T13:16:58.006Z,53.17
2018-11-22T13:19:26.530Z,57.23
2018-11-22T13:21:55.089Z,64.47
2018-11-22T13:24:23.610Z,57.63
2018-11-22T13:26:52.178Z,57.77
2018-11-22T13:29:20.777Z,55.83
2018-11-22T13:31:49.348Z,66.47
2018-11-22T13:34:18.666Z,67.93
2018-11-22T13:36:47.838Z,66.70
2018-11-22T13:39:17.400Z,61.03
2018-11-22T13:41:46.246Z,80.03
2018-11-22T13:44:16.684Z,74.47
2018-11-22T13:46:45.970Z,65.60
2018-11-22T13:49:14.539Z,73.27
2018-11-22T13:51:43.116Z,57.47
2018-11-22T13:54:11.734Z,72.13
2018-11-22T13:56:40.358Z,59.83
2018-11-22T13:59:09.813Z,63.33
2018-11-22T14:01:38.421Z,70.63
2018-11-22T14:04:07.083Z,57.87
2018-11-22T14:06:35.690Z,73.20
2018-11-22T14:09:06.980Z,72.33
2018-11-22T14:11:35.558Z,64.37
2018-11-22T14:14:04.163Z,66.70
2018-11-22T14:16:32.765Z,71.90
2018-11-22T14:19:01.295Z,64.00
2018-11-22T14:21:30.938Z,70.90
2018-11-22T14:24:00.533Z,66.03
2018-11-22T14:26:30.161Z,73.50
2018-11-22T14:28:59.707Z,73.30
2018-11-22T14:31:29.283Z,70.50
2018-11-22T14:33:58.805Z,64.07
2018-11-22T14:36:27.356Z,74.93
2018-11-22T14:38:55.887Z,73.63
2018-11-22T14:41:25.507Z,66.07
2018-11-22T14:43:55.261Z,64.43
2018-11-22T14:46:25.017Z,67.17
2018-11-22T14:48:54.039Z,70.57
2018-11-22T14:51:32.308Z,77.83
2018-11-22T14:54:01.854Z,66.87
2018-11-22T14:56:31.536Z,74.03
2018-11-22T14:59:00.228Z,73.60
2018-11-22T15:01:30.075Z,68.80
2018-11-22T15:03:59.627Z,82.30
2018-11-22T15:06:28.207Z,82.30
2018-11-22T15:08:57.925Z,96.83
2018-11-22T15:11:26.824Z,68.33
2018-11-22T15:13:56.789Z,65.93
2018-11-22T15:16:26.294Z,80.97
2018-11-22T15:18:55.737Z,77.57
2018-11-22T15:21:25.001Z,65.57
2018-11-22T15:23:54.485Z,69.40
2018-11-22T15:26:23.802Z,84.80
2018-11-22T15:28:53.250Z,74.00
2018-11-22T15:31:21.797Z,75.30
2018-11-22T15:33:50.354Z,66.70
2018-11-22T15:36:19.038Z,77.43
2018-11-22T15:38:48.585Z,74.30
2018-11-22T15:41:18.148Z,75.37
2018-11-22T15:43:47.066Z,79.60
2018-11-22T15:46:16.722Z,78.10
2018-11-22T15:48:46.101Z,78.33
2018-11-22T15:51:16.982Z,76.17
2018-11-22T15:53:47.493Z,77.83
2018-11-22T15:56:16.474Z,74.33
2018-11-22T15:58:46.400Z,85.37
2018-11-22T16:01:15.117Z,83.17
2018-11-22T16:03:43.770Z,85.27
2018-11-22T16:06:12.492Z,86.40
2018-11-22T16:08:40.980Z,79.13
2018-11-22T16:11:14.781Z,92.10
2018-11-22T16:13:38.287Z,65.70
2018-11-22T16:16:07.250Z,75.17
2018-11-22T16:18:36.071Z,70.17
2018-11-22T16:21:04.577Z,78.17
2018-11-22T16:23:34.078Z,79.17
2018-11-22T16:26:03.480Z,69.13
2018-11-22T16:28:32.111Z,77.20
2018-11-22T16:31:01.612Z,69.30
2018-11-22T16:33:31.319Z,79.97
2018-11-22T16:36:00.679Z,71.33
2018-11-22T16:38:29.397Z,62.70
2018-11-22T16:40:58.902Z,75.70
2018-11-22T16:43:27.649Z,74.17
2018-11-22T16:45:56.359Z,69.80
2018-11-22T16:48:26.014Z,72.03
2018-11-22T16:50:55.832Z,72.57
2018-11-22T16:53:25.467Z,81.50
2018-11-22T16:55:54.931Z,77.80
2018-11-22T16:58:23.704Z,66.27
2018-11-22T17:00:53.136Z,69.07
2018-11-22T17:03:21.672Z,70.30
2018-11-22T17:05:51.541Z,67.27
2018-11-22T17:08:21.188Z,82.92
2018-11-22T17:10:50.923Z,65.83
2018-11-22T17:13:20.566Z,73.10
2018-11-22T17:15:50.051Z,70.00
2018-11-22T17:18:19.595Z,69.47
2018-11-22T17:20:49.457Z,65.77
2018-11-22T17:23:20.130Z,72.63
2018-11-22T17:25:49.571Z,76.93
2018-11-22T17:28:19.292Z,78.03
2018-11-22T17:30:48.630Z,78.90
2018-11-22T17:33:17.824Z,68.77
2018-11-22T17:35:47.446Z,70.27
2018-11-22T17:38:16.387Z,74.23
2018-11-22T17:40:47.437Z,66.50
2018-11-22T17:43:17.850Z,67.50
2018-11-22T17:45:47.923Z,80.53
2018-11-22T17:48:18.438Z,75.10
2018-11-22T17:50:48.283Z,81.23
2018-11-22T17:53:17.687Z,70.67
2018-11-22T17:55:46.886Z,72.87
2018-11-22T17:58:16.902Z,69.67
2018-11-22T18:00:48.522Z,72.47
2018-11-22T18:03:18.494Z,69.10
2018-11-22T18:05:47.853Z,70.43
2018-11-22T18:08:17.659Z,71.67
2018-11-22T18:10:46.404Z,72.27
2018-11-22T18:13:15.102Z,67.53
2018-11-22T18:15:48.917Z,70.27
2018-11-22T18:18:18.275Z,74.63
2018-11-22T18:20:47.528Z,70.73
2018-11-22T18:23:16.304Z,75.40
2018-11-22T18:25:48.856Z,56.20
2018-11-22T18:28:16.655Z,72.40
2018-11-22T18:30:46.519Z,61.83
2018-11-22T18:33:16.471Z,65.40
2018-11-22T18:35:45.969Z,55.97
2018-11-22T18:38:15.681Z,72.33
2018-11-22T18:40:44.912Z,62.20
2018-11-22T18:43:15.901Z,60.77
2018-11-22T18:45:47.017Z,67.40
2018-11-22T18:48:16.983Z,60.97
2018-11-22T18:50:47.019Z,63.00
2018-11-22T18:53:15.129Z,62.57
2018-11-22T18:55:45.008Z,57.90
2018-11-22T18:58:14.125Z,73.63
2018-11-22T19:00:44.299Z,60.87
2018-11-22T19:03:16.158Z,68.50
2018-11-22T19:05:44.952Z,59.53
2018-11-22T19:08:13.503Z,62.40
2018-11-22T19:10:43.018Z,61.90
2018-11-22T19:13:13.266Z,59.00
2018-11-22T19:15:43.242Z,50.37
2018-11-22T19:18:13.203Z,55.30
2018-11-22T19:20:43.560Z,56.37
2018-11-22T19:23:12.631Z,50.87
2018-11-22T19:25:41.318Z,49.77
2018-11-22T19:28:10.306Z,55.07
2018-11-22T19:30:40.431Z,52.70
2018-11-22T19:33:10.733Z,47.27
2018-11-22T19:35:42.045Z,50.33
2018-11-22T19:38:10.761Z,47.97
2018-11-22T19:40:40.014Z,41.93
2018-11-22T19:43:09.558Z,38.20
2018-11-22T19:45:39.874Z,42.60
2018-11-22T19:48:08.786Z,50.90
2018-11-22T19:50:37.417Z,47.63
2018-11-22T19:53:07.865Z,47.27
2018-11-22T19:55:38.465Z,37.20
2018-11-22T19:58:09.871Z,36.13
2018-11-22T20:00:39.282Z,39.77
2018-11-22T20:03:09.021Z,40.67
2018-11-22T20:05:40.520Z,43.23
2018-11-22T20:10:33.000Z,35.97
2018-11-22T20:13:03.423Z,41.10
2018-11-22T20:15:34.349Z,42.87
2018-11-22T20:18:06.188Z,38.10
2018-11-22T20:20:36.348Z,36.53
2018-11-22T20:23:06.431Z,39.97
2018-11-22T20:25:35.352Z,38.20
2018-11-22T20:28:04.090Z,35.70
2018-11-22T20:30:37.862Z,33.87
2018-11-22T20:33:07.389Z,38.83
2018-11-22T20:35:36.233Z,37.77
2018-11-22T20:38:04.816Z,45.60
2018-11-22T20:40:33.405Z,36.50
2018-11-22T20:43:02.174Z,37.50
2018-11-22T20:45:31.561Z,40.70
2018-11-22T20:48:01.814Z,50.03
2018-11-22T20:50:30.843Z,32.30
2018-11-22T20:53:00.322Z,38.80
2018-11-22T20:55:30.361Z,40.17
2018-11-22T20:58:00.324Z,35.50
2018-11-22T21:00:30.778Z,34.50
2018-11-22T21:02:59.312Z,35.27
2018-11-22T21:05:28.617Z,42.13
2018-11-22T21:07:57.207Z,40.20
2018-11-22T21:10:27.968Z,35.07
2018-11-22T21:12:56.560Z,39.67
2018-11-22T21:15:27.269Z,38.97
2018-11-22T21:18:01.461Z,40.23
2018-11-22T21:20:34.455Z,40.40
2018-11-22T21:23:04.024Z,36.17
2018-11-22T21:25:32.588Z,34.40
2018-11-22T21:28:01.134Z,40.47
2018-11-22T21:30:32.154Z,33.87
2018-11-22T21:33:01.347Z,46.03
2018-11-22T21:35:30.350Z,45.97
2018-11-22T21:37:59.775Z,39.63
2018-11-22T21:40:30.024Z,43.87
2018-11-22T21:42:59.728Z,42.57
2018-11-22T21:45:28.883Z,39.97
2018-11-22T21:47:57.689Z,39.97
2018-11-22T21:50:27.266Z,46.40
2018-11-22T21:52:55.843Z,45.47
2018-11-22T21:55:25.654Z,55.00
2018-11-22T21:57:55.564Z,40.80
2018-11-22T22:00:28.892Z,47.93
2018-11-22T22:02:59.934Z,46.57
2018-11-22T22:05:28.549Z,45.07
2018-11-22T22:07:58.025Z,42.13
2018-11-22T22:10:27.546Z,47.70
2018-11-22T22:12:56.129Z,41.03
2018-11-22T22:15:26.267Z,43.57
2018-11-22T22:17:55.697Z,52.83
2018-11-22T22:20:25.811Z,48.87
2018-11-22T22:22:54.357Z,43.37
2018-11-22T22:25:23.934Z,47.13
2018-11-22T22:27:53.581Z,51.27
2018-11-22T22:30:25.217Z,45.90
2018-11-22T22:32:56.208Z,49.67
2018-11-22T22:35:24.755Z,45.10
2018-11-22T22:37:53.300Z,49.47
2018-11-22T22:40:24.075Z,44.77
2018-11-22T22:42:53.764Z,47.83
2018-11-22T22:45:24.467Z,43.33
2018-11-22T22:47:53.736Z,43.87
2018-11-22T22:50:23.435Z,48.07
2018-11-22T22:52:53.684Z,54.47
2018-11-22T22:55:22.349Z,50.30
2018-11-22T22:57:50.962Z,48.47
2018-11-22T23:00:25.993Z,49.40
2018-11-22T23:02:57.877Z,47.47
2018-11-22T23:05:27.876Z,37.73
2018-11-22T23:07:56.795Z,44.80
2018-11-22T23:10:26.071Z,56.80
2018-11-22T23:12:55.306Z,54.77
2018-11-22T23:15:24.415Z,45.43
2018-11-22T23:17:53.969Z,48.37
2018-11-22T23:20:24.854Z,50.97
2018-11-22T23:22:53.996Z,43.50
2018-11-22T23:25:23.346Z,43.47
2018-11-22T23:27:52.032Z,52.97
2018-11-22T23:30:23.760Z,50.10
2018-11-22T23:32:56.455Z,49.00
2018-11-22T23:35:24.303Z,46.43
2018-11-22T23:37:54.104Z,52.20
2018-11-22T23:40:23.919Z,47.33
2018-11-22T23:42:53.722Z,46.00
2018-11-22T23:45:24.698Z,49.93
2018-11-22T23:47:54.127Z,52.77
2018-11-22T23:50:24.932Z,49.00
2018-11-22T23:52:55.797Z,51.90
2018-11-22T23:55:25.312Z,51.80
2018-11-22T23:57:54.773Z,47.13
